Latest Weather Observations for Coen Airport

IDQ60801

Issued at 3:02 pm EST Friday 31 July 2015 (issued every 30 minutes, with the page automatically refreshed every 10 minutes)

About weather observations | Map of weather stations | Latest weather observations for QLD | Other Formats
Station Details ID: 027073 Name: COEN AIRPORT Lat: -13.76 Lon: 143.12 Height: 159.3 m
Data from the previous 72 hours. | See also: Recent months at Coen Airport
Date/Time
EST
Temp
°C
App
Temp
°C
Dew
Point
Rel
Hum
%
Delta-T
°C
Wind Press
QNH
hPa
Press
MSL
hPa
Rain
since 9 am
mm
Dir
 
Spd
km/h
Gust
km/h
Spd
kts
Gust
kts
31/03:00pm 26.7 24.8 14.1 46 7.5 E 17 30 9 16 1014.7 1014.0 0.0
31/02:30pm 25.9 23.5 13.7 47 7.2 E 19 32 10 17 1015.1 - 0.0
31/02:00pm 26.4 24.1 14.2 47 7.3 ESE 19 30 10 16 1015.5 - 0.0
31/01:30pm 25.8 23.5 14.6 50 6.7 ESE 20 37 11 20 1016.1 - 0.0
31/01:00pm 25.4 23.1 14.2 50 6.7 E 19 35 10 19 1016.6 - 0.0
31/12:30pm 26.0 24.1 14.1 47 7.1 E 17 26 9 14 1016.9 - 0.0
31/12:00pm 26.6 24.4 15.0 49 7.0 E 20 32 11 17 1017.3 1016.7 0.0
31/11:30am 25.5 21.9 14.3 50 6.7 ESE 26 39 14 21 1017.9 - 0.0
31/11:00am 25.3 22.3 14.7 51 6.4 E 24 39 13 21 1018.3 - 0.0
31/10:30am 25.1 22.1 14.8 52 6.2 ESE 24 37 13 20 1018.6 - 0.0
31/10:12am 24.6 20.8 14.7 54 5.9 ESE 28 46 15 25 1018.7 - 0.0
31/10:00am 24.1 20.4 15.1 57 5.4 ESE 28 39 15 21 1018.8 - 0.0
31/09:30am 24.6 21.7 15.2 55 5.7 ESE 24 37 13 20 1018.8 - 0.0
31/09:00am 23.2 21.1 15.3 61 4.7 ESE 20 32 11 17 1018.6 1017.9 0.0
31/08:30am 23.2 22.3 15.8 63 4.5 ESE 15 22 8 12 1018.3 - 0.0
31/08:00am 21.9 20.4 15.3 66 4.0 E 17 24 9 13 1018.0 - 0.0
31/07:30am 20.9 20.1 15.2 70 3.4 E 13 19 7 10 1017.6 - 0.0
31/07:00am 19.0 19.2 14.7 76 2.5 ESE 7 11 4 6 1017.3 - 0.0
31/06:30am 20.0 20.2 14.8 72 3.1 SE 7 11 4 6 1017.0 - 0.0
31/06:00am 20.6 20.6 15.2 71 3.2 ESE 9 15 5 8 1016.7 1016.1 0.0
31/05:30am 20.6 20.3 15.4 72 3.1 E 11 20 6 11 1016.6 - 0.0
31/05:00am 20.5 20.2 15.5 73 3.0 E 11 20 6 11 1016.5 - 0.0
31/04:30am 19.3 20.1 14.8 75 2.6 SSE 4 9 2 5 1016.7 - 0.0
31/04:00am 20.6 20.2 15.2 71 3.2 ESE 11 24 6 13 1016.9 - 0.0
31/03:30am 20.9 19.9 15.7 72 3.1 ESE 15 24 8 13 1017.1 - 0.0
31/03:00am 20.9 20.1 15.2 70 3.4 ESE 13 20 7 11 1017.2 1016.6 0.0
31/02:30am 20.9 20.8 15.9 73 3.0 ESE 11 19 6 10 1017.6 - 0.0
31/02:00am 20.8 20.6 15.8 73 3.0 ESE 11 17 6 9 1017.6 - 0.0
31/01:30am 19.2 19.6 15.3 78 2.3 SSE 7 15 4 8 1017.8 - 0.0
31/01:00am 18.5 18.9 14.8 79 2.2 SE 6 11 3 6 1018.1 - 0.0
31/12:30am 18.3 18.9 14.2 77 2.4 S 4 7 2 4 1018.2 - 0.0
31/12:00am 18.7 19.9 15.0 79 2.2 SE 2 7 1 4 1018.2 1017.6 0.0
 
Date/Time
EST
Temp
°C
App
Temp
°C
Dew
Point
Rel
Hum
%
Delta-T
°C
Wind Press
QNH
hPa
Press
MSL
hPa
Rain
since 9 am
mm
Dir
 
Spd
km/h
Gust
km/h
Spd
kts
Gust
kts
30/11:30pm 18.9 20.5 15.0 78 2.3 CALM 0 6 0 3 1018.3 - 0.0
30/11:00pm 20.1 20.6 15.5 75 2.7 ENE 7 13 4 7 1018.4 - 0.0
30/10:30pm 20.6 21.3 16.0 75 2.8 E 7 15 4 8 1018.4 - 0.0
30/10:00pm 19.1 21.2 16.3 84 1.7 CALM 0 6 0 3 1018.2 - 0.0
30/09:30pm 18.9 20.8 15.8 82 1.8 CALM 0 7 0 4 1018.1 - 0.0
30/09:00pm 19.7 20.0 16.0 79 2.2 N 9 13 5 7 1018.0 1017.3 0.0
30/08:30pm 20.7 21.4 16.1 75 2.8 NW 7 9 4 5 1017.9 - 0.0
30/08:00pm 22.1 22.7 16.8 72 3.3 ENE 9 17 5 9 1017.8 - 0.0
30/07:30pm 22.2 22.8 16.7 71 3.4 E 9 15 5 8 1017.5 - 0.0
30/07:00pm 22.5 23.0 16.5 69 3.7 E 9 13 5 7 1017.2 - 0.0
30/06:30pm 23.2 23.4 16.7 67 4.0 E 11 19 6 10 1016.9 - 0.0
30/06:00pm 24.0 23.8 16.8 64 4.5 E 13 22 7 12 1016.8 1016.2 0.0
30/05:30pm 24.9 23.3 16.6 60 5.1 E 20 35 11 19 1016.5 - 0.0
30/05:00pm 26.0 24.5 16.3 55 6.0 E 19 28 10 15 1016.0 - 0.0
30/04:30pm 26.3 24.7 16.0 53 6.3 E 19 30 10 16 1015.9 - 0.0
30/04:00pm 26.6 24.2 15.3 50 6.9 ENE 22 28 12 15 1015.9 - 0.0
30/03:30pm 26.6 24.6 15.6 50 6.7 ENE 20 32 11 17 1016.2 - 0.0
30/03:00pm 27.2 25.8 15.6 49 7.1 E 17 35 9 19 1016.3 1015.6 0.0
30/02:30pm 27.2 23.3 15.6 49 7.1 ESE 30 41 16 22 1016.6 - 0.0
30/02:00pm 26.4 22.1 14.5 48 7.2 ESE 30 41 16 22 1016.9 - 0.0
30/01:30pm 26.9 22.7 15.6 50 6.9 ESE 32 41 17 22 1017.3 - 0.0
30/01:00pm 25.6 22.5 15.6 54 6.1 E 26 44 14 24 1017.8 - 0.0
30/12:30pm 24.7 21.3 15.9 58 5.4 ESE 28 43 15 23 1018.0 - 0.0
30/12:00pm 25.0 22.2 16.4 59 5.3 ESE 26 43 14 23 1018.4 1017.7 0.0
30/11:30am 23.0 22.9 19.6 81 2.2 ESE 19 30 10 16 1018.9 - 0.0
30/11:00am 24.4 22.2 16.9 63 4.7 ESE 24 32 13 17 1018.7 - 0.0
30/10:30am 25.2 23.6 16.6 59 5.3 ESE 20 32 11 17 1018.8 - 0.0
30/10:00am 24.0 22.4 16.5 63 4.6 E 20 32 11 17 1018.9 - 0.0
30/09:30am 24.0 23.0 16.5 63 4.6 SE 17 28 9 15 1018.7 - 0.0
30/09:00am 23.8 21.5 16.6 64 4.4 SE 24 35 13 19 1018.7 1018.1 0.0
30/08:30am 22.8 21.4 17.0 70 3.6 SE 20 28 11 15 1018.5 - 0.0
30/08:00am 22.5 21.6 16.8 70 3.5 SE 17 24 9 13 1018.1 - 0.0
30/07:30am 22.5 21.1 16.5 69 3.7 ESE 19 28 10 15 1017.8 - 0.0
30/07:00am 22.2 20.9 16.7 71 3.4 ESE 19 28 10 15 1017.1 - 0.0
30/06:30am 22.4 20.5 16.7 70 3.5 E 22 30 12 16 1017.0 - 0.0
30/06:00am 22.2 22.5 16.9 72 3.3 ESE 11 17 6 9 1016.7 1016.1 0.0
30/05:30am 22.3 22.1 16.6 70 3.5 E 13 22 7 12 1016.5 - 0.0
30/05:00am 22.1 21.6 16.8 72 3.3 SE 15 28 8 15 1016.6 - 0.0
30/04:30am 22.1 22.8 17.0 73 3.1 S 9 13 5 7 1016.6 - 0.0
30/04:00am 22.2 22.8 16.9 72 3.3 SE 9 15 5 8 1016.6 - 0.0
30/03:30am 22.3 22.5 16.8 71 3.4 ESE 11 20 6 11 1016.7 - 0.0
30/03:00am 22.3 23.1 17.2 73 3.2 ESE 9 17 5 9 1017.3 1016.7 0.0
30/02:30am 22.3 22.1 17.7 75 2.9 ESE 15 24 8 13 1017.6 - 0.0
30/02:00am 21.4 21.3 17.8 80 2.2 SE 15 19 8 10 1017.9 - 0.0
30/01:30am 22.0 20.9 17.4 75 2.9 SSE 19 26 10 14 1018.1 - 0.0
30/01:00am 22.3 22.0 17.4 74 3.0 ESE 15 24 8 13 1018.4 - 0.0
30/12:30am 21.9 21.3 17.5 76 2.7 ESE 17 24 9 13 1018.6 - 0.0
30/12:00am 21.5 20.9 17.5 78 2.5 SE 17 22 9 12 1018.8 1018.1 0.0
 
Date/Time
EST
Temp
°C
App
Temp
°C
Dew
Point
Rel
Hum
%
Delta-T
°C
Wind Press
QNH
hPa
Press
MSL
hPa
Rain
since 9 am
mm
Dir
 
Spd
km/h
Gust
km/h
Spd
kts
Gust
kts
29/11:30pm 22.1 21.9 17.7 76 2.7 ESE 15 22 8 12 1019.0 - 0.0
29/11:00pm 21.9 20.4 17.7 77 2.6 SE 22 32 12 17 1019.1 - 0.0
29/10:30pm 23.0 21.7 17.2 70 3.6 ESE 20 33 11 18 1019.2 - 0.0
29/10:00pm 22.6 22.6 17.3 72 3.3 ESE 13 20 7 11 1019.2 - 0.0
29/09:30pm 22.3 23.1 17.4 74 3.0 E 9 13 5 7 1019.1 - 0.0
29/09:00pm 22.2 22.2 17.3 74 3.0 ESE 13 17 7 9 1019.2 1018.4 0.0
29/08:30pm 22.8 21.7 17.3 71 3.4 ESE 19 26 10 14 1018.9 - 0.0
29/08:00pm 22.8 23.0 17.7 73 3.2 SE 13 19 7 10 1018.6 - 0.0
29/07:30pm 23.4 23.7 17.8 71 3.5 ESE 13 19 7 10 1018.2 - 0.0
29/07:00pm 23.7 24.5 17.4 68 3.9 ESE 9 13 5 7 1017.7 - 0.0
29/06:30pm 24.0 24.0 17.3 66 4.2 ESE 13 20 7 11 1017.3 - 0.0
29/06:00pm 24.4 23.2 17.4 65 4.4 E 20 32 11 17 1017.0 1016.4 0.0
29/05:30pm 25.2 24.1 17.7 63 4.7 SE 20 32 11 17 1016.7 - 0.0
29/05:00pm 25.8 24.5 17.2 59 5.4 ESE 20 33 11 18 1016.5 - 0.0
29/04:30pm 25.9 24.5 17.0 58 5.6 E 20 33 11 18 1016.5 - 0.0
29/04:00pm 25.9 24.9 16.7 57 5.7 E 17 26 9 14 1016.3 - 0.0
29/03:30pm 27.1 25.8 17.3 55 6.2 ESE 20 33 11 18 1016.3 - 0.0
29/03:00pm 27.8 26.5 18.2 56 6.1 E 22 37 12 20 1016.5 1015.9 0.0
29/02:30pm 26.5 24.2 16.7 55 6.1 E 24 39 13 21 1016.5 - 0.0
29/02:00pm 25.3 23.8 17.7 62 4.8 E 22 35 12 19 1017.2 - 0.0
29/01:30pm 26.1 24.8 18.2 61 5.0 ESE 22 33 12 18 1017.3 - 0.0
29/01:00pm 25.7 25.2 17.9 62 4.9 E 17 33 9 18 1018.0 - 0.0
29/12:30pm 25.3 24.2 17.7 62 4.8 ESE 20 30 11 16 1018.5 - 0.0
29/12:00pm 26.6 25.3 18.2 60 5.4 E 22 35 12 19 1018.8 1018.1 0.0
29/11:30am 25.8 24.7 17.4 59 5.3 ESE 19 28 10 15 1019.2 - 0.0
29/11:00am 25.1 23.3 17.0 60 5.0 ESE 22 41 12 22 1019.3 - 0.0
29/10:30am 25.0 23.7 17.2 62 4.9 ESE 20 39 11 21 1019.3 - 0.0
29/10:00am 24.9 22.3 16.9 61 5.0 ESE 26 39 14 21 1019.3 - 0.0
29/09:30am 24.7 21.7 16.9 62 4.8 ESE 28 44 15 24 1019.2 - 0.0
29/09:00am 25.1 22.7 16.5 59 5.3 ESE 24 33 13 18 1018.9 1018.1 0.0
29/08:30am 24.2 22.2 16.5 62 4.7 ESE 22 32 12 17 1018.8 - 0.0
29/08:00am 23.3 21.8 16.8 67 4.0 ESE 20 37 11 20 1018.5 - 0.0
29/07:30am 22.7 20.0 16.7 69 3.7 ESE 26 43 14 23 1018.2 - 0.0
29/07:28am 22.7 19.7 16.7 69 3.7 ESE 28 43 15 23 1018.2 - 0.0
29/07:00am 22.4 22.3 16.9 71 3.4 ESE 13 19 7 10 1017.9 - 0.0
29/06:30am 22.3 21.7 16.6 70 3.5 ESE 15 24 8 13 1017.6 - 0.0
29/06:00am 22.3 21.3 16.6 70 3.5 ESE 17 22 9 12 1017.3 1016.7 0.0
29/05:30am 22.4 22.2 16.7 70 3.5 E 13 20 7 11 1017.2 - 0.0
29/05:00am 22.2 21.2 16.7 71 3.4 ESE 17 24 9 13 1017.0 - 0.0
29/04:30am 22.1 20.5 16.6 71 3.4 SE 20 32 11 17 1017.2 - 0.0
29/04:00am 22.3 21.3 16.6 70 3.5 ESE 17 30 9 16 1017.2 - 0.0
29/03:30am 22.1 20.2 16.6 71 3.4 ESE 22 33 12 18 1017.5 - 0.0
29/03:00am 22.3 21.7 16.6 70 3.5 ESE 15 22 8 12 1017.8 1017.1 0.0
29/02:30am 22.2 22.4 16.7 71 3.4 E 11 15 6 8 1018.2 - 0.0
29/02:00am 22.5 21.4 17.2 72 3.3 SE 19 30 10 16 1018.3 - 0.0
29/01:30am 22.0 22.6 16.7 72 3.3 ESE 9 13 5 7 1018.8 - 0.0
29/01:00am 22.3 22.9 16.8 71 3.4 E 9 13 5 7 1018.9 - 0.0
29/12:30am 22.2 22.2 17.1 73 3.2 SE 13 15 7 8 1018.8 - 0.0
29/12:00am 21.9 22.3 16.2 70 3.5 ESE 9 17 5 9 1018.9 1018.2 0.0
 
Date/Time
EST
Temp
°C
App
Temp
°C
Dew
Point
Rel
Hum
%
Delta-T
°C
Wind Press
QNH
hPa
Press
MSL
hPa
Rain
since 9 am
mm
Dir
 
Spd
km/h
Gust
km/h
Spd
kts
Gust
kts
28/11:30pm 22.7 22.8 16.5 68 3.8 E 11 20 6 11 1019.2 - 0.0
28/11:00pm 22.2 22.7 15.5 66 4.0 ESE 7 11 4 6 1019.3 - 0.0
28/10:30pm 22.7 23.3 15.8 65 4.2 ESE 7 15 4 8 1019.4 - 0.0
28/10:00pm 23.3 23.2 16.1 64 4.4 E 11 19 6 10 1019.5 - 0.0
28/09:30pm 23.2 22.7 17.0 68 3.8 SE 15 20 8 11 1019.5 - 0.0
28/09:00pm 23.6 23.5 17.8 70 3.6 ESE 15 24 8 13 1019.2 1018.5 0.0
28/08:30pm 24.1 22.6 17.6 67 4.1 ESE 22 30 12 16 1018.8 - 0.0
28/08:00pm 23.5 24.7 18.2 72 3.3 E 9 15 5 8 1018.8 - 0.0
28/07:30pm 23.7 24.1 18.1 71 3.5 ENE 13 20 7 11 1018.5 - 0.0
28/07:00pm 24.8 25.1 17.0 62 4.9 E 11 24 6 13 1018.0 - 0.0
28/06:30pm 25.3 24.7 16.7 59 5.3 E 15 22 8 12 1017.8 - 0.0
28/06:00pm 26.1 25.0 16.4 55 6.0 E 17 26 9 14 1017.3 1016.7 0.0
28/05:30pm 26.6 25.2 15.6 50 6.7 E 17 26 9 14 1016.8 - 0.0
28/05:00pm 27.3 26.1 16.0 50 7.0 E 17 26 9 14 1016.3 - 0.0
28/04:30pm 27.1 24.6 16.1 51 6.8 E 24 35 13 19 1016.2 - 0.0
28/04:00pm 26.7 24.1 16.0 52 6.6 E 24 43 13 23 1016.3 - 0.0
28/03:30pm 28.1 24.7 15.7 46 7.7 E 28 44 15 24 1016.2 - 0.0

Other Formats:

Comma delimited format used in spreadsheet applications
http://www.bom.gov.au/fwo/IDQ60801/IDQ60801.94183.axf

JavaScript Object Notation format (JSON) in row-major order
http://www.bom.gov.au/fwo/IDQ60801/IDQ60801.94183.json